Pacatuba, Brazil
Current Conditions -  °F | °C
As of 1:10 PM on Friday 21 Nov 2014 (Local Time) from SBFZ Reporting Station
Broken Clouds Broken Clouds  
Wind Chill: 77°   Ceiling: 2000
Heat Index: 78°   Visibility: 6mi
Dew Point: 72°   Wind: 14mph
Humidity: 83%   Direction: 80°E
Pressure: 29.85"   Gusts: NA
Location:  3.98°S, 38.62°W
Report Text: SBFZ 211610Z 08012KT 9999 BKN020 BKN090 25/22 Q1011
Loading
Personal Weather Stations






























Interactive Weather Map New forecast layout! Learn more

10-Day Weather Forecast

Advertisements
Track Severe Weather on mobile